createdAt,value
2019-04-07T00:02:17.708Z,79.47
2019-04-07T00:04:48.953Z,78.63
2019-04-07T00:07:20.088Z,77.97
2019-04-07T00:09:52.572Z,77.65
2019-04-07T00:12:23.338Z,77.55
2019-04-07T00:14:55.274Z,77.34
2019-04-07T00:17:27.220Z,76.72
2019-04-07T00:19:58.209Z,75.98
2019-04-07T00:22:29.077Z,75.68
2019-04-07T00:25:00.755Z,76.61
2019-04-07T00:27:32.042Z,76.24
2019-04-07T00:30:02.882Z,75.88
2019-04-07T00:32:33.807Z,77.39
2019-04-07T00:35:05.480Z,77.69
2019-04-07T00:37:37.346Z,78.36
2019-04-07T00:40:08.634Z,78.46
2019-04-07T00:42:39.474Z,77.68
2019-04-07T00:45:10.749Z,78.37
2019-04-07T00:47:41.985Z,77.93
2019-04-07T00:50:15.300Z,78.43
2019-04-07T00:52:46.845Z,78.07
2019-04-07T00:55:17.677Z,77.81
2019-04-07T00:57:48.639Z,77.75
2019-04-07T01:00:21.951Z,77.63
2019-04-07T01:02:52.965Z,77.34
2019-04-07T01:05:34.239Z,77.58
2019-04-07T01:07:56.566Z,77.82
2019-04-07T01:10:27.575Z,76.13
2019-04-07T01:12:58.973Z,76.61
2019-04-07T01:15:29.732Z,77.60
2019-04-07T01:18:01.156Z,77.94
2019-04-07T01:20:31.943Z,78.69
2019-04-07T01:23:02.858Z,77.57
2019-04-07T01:25:33.725Z,77.64
2019-04-07T01:28:04.752Z,77.63
2019-04-07T01:30:37.094Z,77.23
2019-04-07T01:33:08.710Z,76.43
2019-04-07T01:35:47.447Z,77.20
2019-04-07T01:38:12.655Z,77.21
2019-04-07T01:40:46.852Z,77.70
2019-04-07T01:43:32.698Z,78.45
2019-04-07T01:46:17.594Z,77.40
2019-04-07T01:48:59.467Z,77.58
2019-04-07T01:51:39.957Z,77.24
2019-04-07T01:54:29.869Z,77.78
2019-04-07T01:57:15.616Z,77.90
2019-04-07T02:00:11.134Z,77.76
2019-04-07T02:03:02.393Z,78.50
2019-04-07T02:05:59.173Z,78.64
2019-04-07T02:08:42.859Z,78.44
2019-04-07T02:11:31.031Z,78.37
2019-04-07T02:14:11.227Z,78.87
2019-04-07T02:16:59.892Z,79.96
2019-04-07T02:19:37.103Z,80.78
2019-04-07T02:22:34.391Z,80.53
2019-04-07T02:25:39.755Z,80.92
2019-04-07T02:28:17.695Z,81.37
2019-04-07T02:31:11.632Z,79.01
2019-04-07T02:34:03.289Z,78.64
2019-04-07T02:36:44.738Z,78.68
2019-04-07T02:39:33.360Z,77.88
2019-04-07T02:42:15.191Z,78.11
2019-04-07T02:44:57.150Z,78.09
2019-04-07T02:47:35.657Z,78.29
2019-04-07T02:50:30.198Z,79.21
2019-04-07T02:53:22.974Z,78.81
2019-04-07T02:56:11.515Z,79.05
2019-04-07T02:59:10.408Z,79.96
2019-04-07T03:01:59.466Z,81.34
2019-04-07T03:04:44.463Z,82.03
2019-04-07T03:07:23.801Z,81.43
2019-04-07T03:10:04.403Z,82.44
2019-04-07T03:12:53.161Z,81.17
2019-04-07T03:15:36.337Z,80.70
2019-04-07T03:18:29.315Z,79.97
2019-04-07T03:21:09.592Z,80.62
2019-04-07T03:23:58.592Z,81.33
2019-04-07T03:26:47.842Z,81.53
2019-04-07T03:29:35.004Z,82.37
2019-04-07T03:32:26.383Z,82.38
2019-04-07T03:35:17.364Z,83.49
2019-04-07T03:38:13.998Z,82.74
2019-04-07T03:40:49.755Z,83.84
2019-04-07T03:43:31.054Z,84.68
2019-04-07T03:46:14.323Z,84.59
2019-04-07T03:48:49.828Z,84.33
2019-04-07T03:51:36.723Z,84.07
2019-04-07T03:54:24.218Z,83.41
2019-04-07T03:57:13.161Z,82.75
2019-04-07T04:00:18.869Z,83.87
2019-04-07T04:03:08.850Z,83.54
2019-04-07T04:05:57.314Z,83.38
2019-04-07T04:08:45.752Z,83.76
2019-04-07T04:11:34.298Z,82.84
2019-04-07T04:14:16.625Z,83.88
2019-04-07T04:16:50.911Z,84.01
2019-04-07T04:19:22.670Z,83.63
2019-04-07T04:21:54.205Z,83.30
2019-04-07T04:24:26.492Z,83.08
2019-04-07T04:26:57.873Z,83.21
2019-04-07T04:29:29.790Z,82.88
2019-04-07T04:32:01.521Z,81.79
2019-04-07T04:34:32.967Z,80.44
2019-04-07T04:37:03.988Z,79.76
2019-04-07T04:39:35.503Z,81.49
2019-04-07T04:42:07.080Z,80.26
2019-04-07T04:44:38.057Z,80.02
2019-04-07T04:47:08.923Z,80.21
2019-04-07T04:49:40.382Z,81.28
2019-04-07T04:52:11.590Z,79.27
2019-04-07T04:54:42.616Z,78.77
2019-04-07T04:57:14.247Z,79.05
2019-04-07T04:59:45.224Z,79.05
2019-04-07T05:02:17.143Z,78.38
2019-04-07T05:04:48.015Z,79.25
2019-04-07T05:07:19.787Z,79.89
2019-04-07T05:09:53.266Z,81.72
2019-04-07T05:12:23.316Z,83.00
2019-04-07T05:14:54.850Z,83.07
2019-04-07T05:17:26.070Z,84.03
2019-04-07T05:19:57.652Z,84.70
2019-04-07T05:22:29.086Z,85.18
2019-04-07T05:24:59.924Z,85.45
2019-04-07T05:27:30.811Z,85.38
2019-04-07T05:30:02.459Z,85.17
2019-04-07T05:32:33.557Z,84.99
2019-04-07T05:35:05.883Z,86.09
2019-04-07T05:37:37.267Z,87.24
2019-04-07T05:40:08.207Z,86.83
2019-04-07T05:42:40.097Z,87.48
2019-04-07T05:45:11.542Z,86.87
2019-04-07T05:47:47.823Z,87.43
2019-04-07T05:50:15.486Z,86.84
2019-04-07T05:52:46.617Z,86.55
2019-04-07T05:55:20.600Z,86.37
2019-04-07T05:57:50.147Z,86.17
2019-04-07T06:00:21.002Z,85.65
2019-04-07T06:02:52.777Z,86.73
2019-04-07T06:05:24.448Z,87.14
2019-04-07T06:07:56.946Z,86.27
2019-04-07T06:10:29.716Z,86.88
2019-04-07T06:13:00.832Z,87.00
2019-04-07T06:15:32.500Z,87.06
2019-04-07T06:18:04.102Z,86.65
2019-04-07T06:20:35.101Z,87.03
2019-04-07T06:23:06.182Z,87.97
2019-04-07T06:25:41.529Z,88.09
2019-04-07T06:28:13.918Z,88.79
2019-04-07T06:30:44.033Z,88.29
2019-04-07T06:33:15.634Z,88.02
2019-04-07T06:35:47.684Z,87.58
2019-04-07T06:38:30.509Z,87.97
2019-04-07T06:40:56.535Z,88.54
2019-04-07T06:43:25.805Z,87.44
2019-04-07T06:46:12.909Z,87.42
2019-04-07T06:49:11.667Z,87.54
2019-04-07T06:51:49.124Z,86.57
2019-04-07T06:54:44.920Z,86.15
2019-04-07T06:57:23.553Z,85.92
2019-04-07T07:00:09.045Z,86.63
2019-04-07T07:03:09.495Z,87.25
2019-04-07T07:06:01.147Z,87.25
2019-04-07T07:08:45.210Z,86.76
2019-04-07T07:11:31.094Z,85.72
2019-04-07T07:14:32.877Z,85.21
2019-04-07T07:17:13.113Z,85.46
2019-04-07T07:19:56.612Z,83.76
2019-04-07T07:22:40.236Z,81.26
2019-04-07T07:25:11.258Z,80.41
2019-04-07T07:27:43.056Z,79.28
2019-04-07T07:30:17.463Z,79.31
2019-04-07T07:32:48.578Z,76.99
2019-04-07T07:35:19.553Z,75.48
2019-04-07T07:37:51.315Z,74.72
2019-04-07T07:40:22.239Z,75.91
2019-04-07T07:42:55.437Z,76.53
2019-04-07T07:45:26.169Z,77.33
2019-04-07T07:47:57.705Z,78.65
2019-04-07T07:50:30.006Z,78.26
2019-04-07T07:53:01.394Z,78.59
2019-04-07T07:55:36.507Z,77.69
2019-04-07T07:58:04.818Z,77.52
2019-04-07T08:00:39.851Z,75.95
2019-04-07T08:03:08.571Z,75.95
2019-04-07T08:05:39.322Z,76.54
2019-04-07T08:08:10.358Z,76.87
2019-04-07T08:10:41.398Z,76.76
2019-04-07T08:13:12.564Z,75.10
2019-04-07T08:15:43.746Z,77.17
2019-04-07T08:18:16.609Z,78.05
2019-04-07T08:20:49.073Z,79.85
2019-04-07T08:23:21.071Z,77.23
2019-04-07T08:25:53.979Z,78.92
2019-04-07T08:28:24.541Z,78.07
2019-04-07T08:30:55.695Z,75.54
2019-04-07T08:33:28.808Z,76.67
2019-04-07T08:36:00.040Z,75.31
2019-04-07T08:38:31.121Z,75.33
2019-04-07T08:41:02.104Z,76.27
2019-04-07T08:43:33.023Z,77.05
2019-04-07T08:46:05.028Z,75.29
2019-04-07T08:48:37.405Z,73.15
2019-04-07T08:51:08.636Z,73.15
2019-04-07T08:53:43.749Z,72.72
2019-04-07T08:56:12.966Z,70.09
2019-04-07T08:58:43.850Z,67.84
2019-04-07T09:01:17.362Z,67.84
2019-04-07T09:03:48.590Z,64.43
2019-04-07T09:06:19.645Z,60.33
2019-04-07T09:08:51.042Z,59.98
2019-04-07T09:11:23.663Z,59.29
2019-04-07T09:13:55.965Z,59.21
2019-04-07T09:16:48.085Z,58.73
2019-04-07T09:19:36.810Z,56.45
2019-04-07T09:22:32.747Z,60.88
2019-04-07T09:25:22.545Z,57.60
2019-04-07T09:28:21.252Z,55.40
2019-04-07T09:31:12.160Z,55.17
2019-04-07T09:33:52.821Z,54.34
2019-04-07T09:36:51.708Z,55.28
2019-04-07T09:39:33.993Z,53.85
2019-04-07T09:42:24.381Z,54.54
2019-04-07T09:45:13.863Z,59.38
2019-04-07T09:47:57.543Z,52.49
2019-04-07T09:50:51.412Z,52.96
2019-04-07T09:53:33.788Z,51.41
2019-04-07T09:56:32.721Z,52.51
2019-04-07T09:59:28.676Z,51.23
2019-04-07T10:02:25.064Z,51.07
2019-04-07T10:05:24.024Z,51.69
2019-04-07T10:08:12.231Z,51.38
2019-04-07T10:10:53.820Z,51.00
2019-04-07T10:13:42.533Z,53.07
2019-04-07T10:16:42.471Z,53.72
2019-04-07T10:19:31.738Z,53.05
2019-04-07T10:22:34.128Z,54.14
2019-04-07T10:25:34.308Z,53.99
2019-04-07T10:28:26.485Z,53.87
2019-04-07T10:31:20.762Z,53.00
2019-04-07T10:34:05.181Z,52.04
2019-04-07T10:36:57.899Z,54.57
2019-04-07T10:39:38.165Z,55.20
2019-04-07T10:42:28.267Z,55.58
2019-04-07T10:45:17.798Z,50.79
2019-04-07T10:48:11.013Z,51.51
2019-04-07T10:51:16.302Z,50.97
2019-04-07T10:53:57.278Z,51.09
2019-04-07T10:56:48.022Z,53.31
2019-04-07T10:59:36.899Z,51.04
2019-04-07T11:02:15.422Z,51.12
2019-04-07T11:05:09.785Z,51.51
2019-04-07T11:07:54.689Z,52.26
2019-04-07T11:10:43.100Z,52.33
2019-04-07T11:13:32.641Z,54.17
2019-04-07T11:16:15.081Z,54.35
2019-04-07T11:19:07.939Z,56.18
2019-04-07T11:21:58.012Z,54.65
2019-04-07T11:24:41.374Z,53.10
2019-04-07T11:27:43.841Z,51.20
2019-04-07T11:30:21.477Z,50.34
2019-04-07T11:33:08.245Z,48.21
2019-04-07T11:35:44.510Z,48.63
2019-04-07T11:38:26.500Z,51.04
2019-04-07T11:41:27.339Z,49.64
2019-04-07T11:44:15.114Z,52.16
2019-04-07T11:46:54.839Z,51.30
2019-04-07T11:49:44.760Z,51.91
2019-04-07T11:52:29.724Z,51.86
2019-04-07T11:55:11.899Z,53.21
2019-04-07T11:58:06.667Z,51.65
2019-04-07T12:00:51.381Z,52.48
2019-04-07T12:03:29.912Z,52.02
2019-04-07T12:06:13.597Z,50.31
2019-04-07T12:08:51.993Z,47.29
2019-04-07T12:11:36.995Z,47.58
2019-04-07T12:14:17.031Z,48.39
2019-04-07T12:17:15.098Z,47.43
2019-04-07T12:20:27.396Z,47.36
2019-04-07T12:23:08.304Z,46.11
2019-04-07T12:25:50.293Z,48.21
2019-04-07T12:28:49.132Z,47.28
2019-04-07T12:31:37.493Z,48.36
2019-04-07T12:34:18.974Z,46.75
2019-04-07T12:37:06.859Z,49.43
2019-04-07T12:39:55.514Z,48.94
2019-04-07T12:42:42.944Z,48.03
2019-04-07T12:45:29.911Z,50.69
2019-04-07T12:48:23.144Z,52.05
2019-04-07T12:51:13.648Z,48.51
2019-04-07T12:53:49.017Z,51.19
2019-04-07T12:56:36.195Z,51.93
2019-04-07T12:59:26.048Z,50.13
2019-04-07T13:02:06.865Z,50.20
2019-04-07T13:04:44.693Z,49.89
2019-04-07T13:07:38.626Z,49.92
2019-04-07T13:10:30.279Z,48.85
2019-04-07T13:13:13.926Z,47.21
2019-04-07T13:16:25.370Z,49.23
2019-04-07T13:19:02.262Z,47.88
2019-04-07T13:21:45.576Z,46.21
2019-04-07T13:24:31.165Z,49.27
2019-04-07T13:27:28.495Z,49.77
2019-04-07T13:30:17.071Z,48.53
2019-04-07T13:32:57.544Z,50.16
2019-04-07T13:35:53.595Z,51.81
2019-04-07T13:38:37.213Z,50.83
2019-04-07T13:41:47.571Z,48.95
2019-04-07T13:44:38.823Z,49.51
2019-04-07T13:47:23.162Z,48.87
2019-04-07T13:50:14.442Z,46.54
2019-04-07T13:52:58.988Z,47.64
2019-04-07T13:55:46.336Z,47.11
2019-04-07T13:58:33.025Z,47.67
2019-04-07T14:01:19.293Z,47.10
2019-04-07T14:04:10.490Z,48.83
2019-04-07T14:07:02.396Z,52.97
2019-04-07T14:10:01.432Z,48.85
2019-04-07T14:13:04.157Z,50.64
2019-04-07T14:15:57.626Z,47.88
2019-04-07T14:18:46.850Z,46.22
2019-04-07T14:21:35.164Z,47.26
2019-04-07T14:24:33.926Z,46.21
2019-04-07T14:27:12.703Z,46.71
2019-04-07T14:29:51.253Z,47.23
2019-04-07T14:32:48.378Z,46.67
2019-04-07T14:35:45.925Z,47.85
2019-04-07T14:38:26.703Z,48.99
2019-04-07T14:41:20.538Z,49.99
2019-04-07T14:44:13.953Z,50.78
2019-04-07T14:47:08.879Z,50.46
2019-04-07T14:49:57.588Z,48.78
2019-04-07T14:52:50.133Z,47.86
2019-04-07T14:55:39.916Z,49.17
2019-04-07T14:58:29.145Z,50.25
2019-04-07T15:01:22.506Z,50.65
2019-04-07T15:03:54.523Z,51.47
2019-04-07T15:06:28.493Z,51.43
2019-04-07T15:09:13.374Z,49.24
2019-04-07T15:12:15.890Z,50.53
2019-04-07T15:14:39.357Z,53.96
2019-04-07T15:17:10.983Z,52.71
2019-04-07T15:19:42.235Z,51.76
2019-04-07T15:22:13.285Z,48.41
2019-04-07T15:24:44.311Z,50.63
2019-04-07T15:27:15.575Z,51.82
2019-04-07T15:29:47.093Z,51.36
2019-04-07T15:32:18.176Z,50.77
2019-04-07T15:34:49.191Z,50.52
2019-04-07T15:37:23.540Z,50.41
2019-04-07T15:39:53.107Z,50.55
2019-04-07T15:42:35.129Z,52.59
2019-04-07T15:44:57.298Z,53.67
2019-04-07T15:47:28.737Z,52.01
2019-04-07T15:50:00.627Z,52.29
2019-04-07T15:52:32.005Z,50.72
2019-04-07T15:55:03.025Z,50.85
2019-04-07T15:57:35.045Z,50.06
2019-04-07T16:00:06.580Z,48.75
2019-04-07T16:02:40.927Z,49.91
2019-04-07T16:05:10.511Z,49.22
2019-04-07T16:07:41.821Z,48.75
2019-04-07T16:10:13.557Z,47.31
2019-04-07T16:12:49.920Z,48.00
2019-04-07T16:15:18.240Z,48.36
2019-04-07T16:17:50.299Z,48.48
2019-04-07T16:20:25.048Z,48.32
2019-04-07T16:22:53.802Z,46.47
2019-04-07T16:25:27.528Z,52.35
2019-04-07T16:27:58.667Z,48.57
2019-04-07T16:30:30.430Z,47.32
2019-04-07T16:33:04.072Z,49.25
2019-04-07T16:35:34.613Z,48.11
2019-04-07T16:38:05.781Z,47.45
2019-04-07T16:40:40.454Z,49.33
2019-04-07T16:43:14.498Z,49.76
2019-04-07T16:45:45.606Z,49.38
2019-04-07T16:48:16.206Z,50.82
2019-04-07T16:50:51.836Z,51.48
2019-04-07T16:53:20.515Z,51.37
2019-04-07T16:55:54.287Z,52.09
2019-04-07T16:58:24.419Z,54.05
2019-04-07T17:00:55.965Z,53.69
2019-04-07T17:03:28.900Z,54.40
2019-04-07T17:06:02.036Z,55.33
2019-04-07T17:08:33.871Z,56.49
2019-04-07T17:11:07.702Z,55.43
2019-04-07T17:13:41.436Z,56.14
2019-04-07T17:16:12.197Z,55.70
2019-04-07T17:18:44.906Z,56.87
2019-04-07T17:21:17.019Z,56.61
2019-04-07T17:23:47.874Z,56.90
2019-04-07T17:26:21.390Z,57.49
2019-04-07T17:28:51.598Z,58.14
2019-04-07T17:31:22.695Z,57.95
2019-04-07T17:33:55.542Z,59.18
2019-04-07T17:36:26.819Z,59.50
2019-04-07T17:39:26.087Z,61.17
2019-04-07T17:41:57.897Z,62.20
2019-04-07T17:44:53.714Z,62.85
2019-04-07T17:47:32.738Z,65.52
2019-04-07T17:50:31.031Z,66.39
2019-04-07T17:53:11.653Z,68.23
2019-04-07T17:55:58.973Z,69.25
2019-04-07T17:58:48.067Z,69.45
2019-04-07T18:01:30.056Z,71.08
2019-04-07T18:04:20.852Z,71.98
2019-04-07T18:07:10.175Z,73.33
2019-04-07T18:10:03.554Z,75.00
2019-04-07T18:12:59.968Z,74.87
2019-04-07T18:15:47.207Z,75.94
2019-04-07T18:18:31.661Z,76.30
2019-04-07T18:21:11.700Z,76.92
2019-04-07T18:23:59.839Z,77.26
2019-04-07T18:26:52.554Z,78.25
2019-04-07T18:29:36.367Z,79.07
2019-04-07T18:32:36.248Z,79.41
2019-04-07T18:35:26.443Z,80.05
2019-04-07T18:38:10.240Z,80.75
2019-04-07T18:41:00.761Z,81.33
2019-04-07T18:44:01.903Z,82.11
2019-04-07T18:46:49.982Z,81.40
2019-04-07T18:49:49.890Z,82.09
2019-04-07T18:52:29.270Z,82.05
2019-04-07T18:55:22.462Z,82.45
2019-04-07T18:58:03.146Z,82.17
2019-04-07T19:00:46.031Z,81.95
2019-04-07T19:03:26.483Z,81.21
2019-04-07T19:06:20.886Z,80.25
2019-04-07T19:09:16.701Z,76.80
2019-04-07T19:12:16.710Z,78.85
2019-04-07T19:15:06.936Z,78.69
2019-04-07T19:17:50.420Z,78.18
2019-04-07T19:20:40.701Z,75.43
2019-04-07T19:23:48.686Z,76.64
2019-04-07T19:26:54.555Z,77.40
2019-04-07T19:29:46.034Z,74.92
2019-04-07T19:32:38.866Z,75.13
2019-04-07T19:35:29.426Z,73.92
2019-04-07T19:38:22.441Z,75.78
2019-04-07T19:41:17.265Z,76.36
2019-04-07T19:43:54.015Z,74.93
2019-04-07T19:46:50.339Z,72.86
2019-04-07T19:49:34.729Z,72.32
2019-04-07T19:52:14.064Z,73.47
2019-04-07T19:54:55.074Z,72.52
2019-04-07T19:58:00.934Z,71.68
2019-04-07T20:00:56.771Z,72.01
2019-04-07T20:03:47.254Z,71.54
2019-04-07T20:06:58.178Z,70.94
2019-04-07T20:09:50.414Z,70.94
2019-04-07T20:12:42.935Z,72.06
2019-04-07T20:15:38.998Z,71.21
2019-04-07T20:18:31.900Z,71.21
2019-04-07T20:21:16.395Z,71.91
2019-04-07T20:24:20.236Z,74.08
2019-04-07T20:27:16.166Z,74.08
2019-04-07T20:29:56.205Z,73.92
2019-04-07T20:32:44.767Z,74.29
2019-04-07T20:35:37.915Z,74.84
2019-04-07T20:38:25.573Z,74.82
2019-04-07T20:41:16.110Z,74.81
2019-04-07T20:43:59.349Z,75.23
2019-04-07T20:46:57.000Z,74.89
2019-04-07T20:49:35.711Z,75.84
2019-04-07T20:52:26.509Z,76.77
2019-04-07T20:55:28.777Z,76.93
2019-04-07T20:58:23.310Z,77.20
2019-04-07T21:01:22.175Z,77.05
2019-04-07T21:04:26.076Z,77.84
2019-04-07T21:07:19.194Z,78.19
2019-04-07T21:10:04.508Z,78.98
2019-04-07T21:13:00.234Z,79.16
2019-04-07T21:16:01.988Z,80.21
2019-04-07T21:18:54.571Z,81.39
2019-04-07T21:21:47.898Z,81.32
2019-04-07T21:24:43.850Z,81.28
2019-04-07T21:27:20.699Z,81.93
2019-04-07T21:30:00.286Z,82.22
2019-04-07T21:32:39.898Z,82.27
2019-04-07T21:35:34.743Z,83.04
2019-04-07T21:38:26.130Z,84.14
2019-04-07T21:41:16.751Z,83.63
2019-04-07T21:44:05.933Z,84.04
2019-04-07T21:46:54.776Z,83.80
2019-04-07T21:49:39.408Z,84.16
2019-04-07T21:52:43.033Z,84.48
2019-04-07T21:55:23.595Z,83.86
2019-04-07T21:58:12.412Z,84.23
2019-04-07T22:00:58.572Z,84.28
2019-04-07T22:03:48.413Z,83.78
2019-04-07T22:06:37.338Z,84.19
2019-04-07T22:09:19.412Z,84.25
2019-04-07T22:11:51.544Z,84.20
2019-04-07T22:14:23.453Z,83.85
2019-04-07T22:16:54.741Z,84.26
2019-04-07T22:19:25.566Z,84.56
2019-04-07T22:21:56.978Z,84.51
2019-04-07T22:24:31.321Z,84.86
2019-04-07T22:27:01.427Z,84.66
2019-04-07T22:29:34.961Z,84.59
2019-04-07T22:32:06.126Z,84.88
2019-04-07T22:34:37.695Z,85.47
2019-04-07T22:37:08.798Z,85.79
2019-04-07T22:39:39.764Z,86.52
2019-04-07T22:42:12.959Z,86.68
2019-04-07T22:44:43.242Z,86.94
2019-04-07T22:47:15.401Z,87.10
2019-04-07T22:49:46.902Z,87.96
2019-04-07T22:52:18.880Z,88.62
2019-04-07T22:54:49.936Z,89.11
2019-04-07T22:57:21.896Z,88.97
2019-04-07T22:59:53.028Z,88.83
2019-04-07T23:02:24.166Z,89.02
2019-04-07T23:04:55.909Z,88.83
2019-04-07T23:07:27.629Z,88.77
2019-04-07T23:09:58.740Z,88.79
2019-04-07T23:12:29.499Z,88.84
2019-04-07T23:15:00.276Z,89.36
2019-04-07T23:17:31.046Z,89.12
2019-04-07T23:20:02.395Z,88.83
2019-04-07T23:22:34.015Z,88.90
2019-04-07T23:25:05.822Z,88.50
2019-04-07T23:27:36.560Z,88.19
2019-04-07T23:30:08.841Z,87.95
2019-04-07T23:32:39.991Z,88.37
2019-04-07T23:35:11.252Z,89.05
2019-04-07T23:37:42.030Z,89.90
2019-04-07T23:40:12.959Z,89.82
2019-04-07T23:42:44.580Z,90.05
2019-04-07T23:45:16.579Z,90.60
2019-04-07T23:47:47.727Z,90.03
2019-04-07T23:50:18.823Z,91.09
2019-04-07T23:52:50.316Z,91.06
2019-04-07T23:55:21.890Z,91.76
2019-04-07T23:57:54.194Z,91.36
